Lakeville Estates, New York
Current Conditions -  °F | °C
As of 7:51 PM on Saturday 25 Oct 2014 (Local Time) from KJFK Reporting Station
Scattered Clouds Scattered Clouds  
Wind Chill: 62°   Ceiling: Unl
Heat Index: 62°   Visibility: 10mi
Dew Point: 46°   Wind: 12mph
Humidity: 56%   Direction: 220°SW
Pressure: 29.66"   Gusts: NA
Location:  40.7459°N, 73.6798°W
Report Text: KJFK 252351Z 22010KT 10SM SCT075 17/08 A2966 RMK AO2 SLP042 T01670078 10200 20161 56006
Loading
Personal Weather Stations






























Interactive Weather Map
Tropical Storm Tracking
New forecast layout! Learn more

10-Day Weather Forecast

Advertisements
Track Severe Weather on mobile